Time;durP1;ratioP1;P1;durP2;ratioP2;P2;SDS_P1;SDS_P2;PMS_P1;PMS_P2;Temp;Humidity;BMP_temperature;BMP_pressure;BME280_temperature;BME280_humidity;BME280_pressure;Samples;Min_cycle;Max_cycle;Signal;HPM_P1;HPM_P2
2023/03/16 00:02:05;;;;;;;8.98;4.50;;;;;;;6.48;88.93;101686.25;5215014;28;20465;-71
2023/03/16 00:04:36;;;;;;;5.80;4.32;;;;;;;6.49;88.05;101685.34;5216325;28;20541;-72
2023/03/16 00:07:10;;;;;;;6.63;4.28;;;;;;;6.55;87.77;101682.38;5216580;28;20026;-71
2023/03/16 00:09:41;;;;;;;7.85;4.90;;;;;;;6.47;88.48;101680.19;5217127;28;20487;-72
2023/03/16 00:12:18;;;;;;;8.25;4.82;;;;;;;6.54;88.66;101688.50;5216692;28;20040;-72
2023/03/16 00:14:50;;;;;;;7.82;4.88;;;;;;;6.47;89.46;101676.75;5216534;28;20136;-71
2023/03/16 00:17:21;;;;;;;7.65;4.43;;;;;;;6.49;88.00;101673.16;5216169;28;20124;-71
2023/03/16 00:19:55;;;;;;;6.93;4.65;;;;;;;6.52;88.44;101675.59;5216141;28;20018;-71
2023/03/16 00:22:29;;;;;;;5.88;4.47;;;;;;;6.46;89.81;101670.72;5216107;28;20060;-71
2023/03/16 00:25:00;;;;;;;7.07;4.57;;;;;;;6.47;89.34;101677.59;5215835;28;20025;-71
2023/03/16 00:27:32;;;;;;;7.45;4.25;;;;;;;6.50;89.43;101671.38;5216685;28;20032;-71
2023/03/16 00:30:04;;;;;;;7.75;4.45;;;;;;;6.49;90.31;101660.13;5215568;28;20030;-72
2023/03/16 00:32:36;;;;;;;7.00;4.95;;;;;;;6.53;90.12;101668.63;5215872;28;20026;-71
2023/03/16 00:35:08;;;;;;;5.32;4.45;;;;;;;6.53;89.33;101659.03;5215437;28;20054;-71
2023/03/16 00:37:41;;;;;;;7.38;4.70;;;;;;;6.45;90.82;101661.22;5215406;28;20743;-71
2023/03/16 00:40:13;;;;;;;7.60;4.90;;;;;;;6.46;90.75;101654.25;5214907;28;20053;-72
2023/03/16 00:42:44;;;;;;;8.30;4.88;;;;;;;6.49;90.20;101661.91;5215162;28;20563;-71
2023/03/16 00:45:15;;;;;;;7.22;4.32;;;;;;;6.47;90.46;101646.34;5215804;28;20022;-71
2023/03/16 00:47:47;;;;;;;6.30;4.65;;;;;;;6.46;90.56;101651.66;5215769;28;20332;-71
2023/03/16 00:50:21;;;;;;;6.45;4.50;;;;;;;6.34;91.35;101627.13;5213909;28;20038;-71
2023/03/16 00:52:52;;;;;;;7.78;4.90;;;;;;;6.48;92.14;101644.63;5215665;28;20052;-71
2023/03/16 00:55:23;;;;;;;6.43;4.38;;;;;;;6.46;91.14;101642.06;5216177;28;20037;-71
2023/03/16 00:57:55;;;;;;;7.38;4.53;;;;;;;6.49;91.31;101647.13;5215429;28;20021;-71
2023/03/16 01:00:27;;;;;;;7.05;4.75;;;;;;;6.45;91.34;101640.41;5215610;28;20076;-71
2023/03/16 01:02:58;;;;;;;6.55;4.50;;;;;;;6.49;91.06;101633.28;5216064;28;20025;-71
2023/03/16 01:05:32;;;;;;;5.25;4.20;;;;;;;6.47;90.94;101628.13;5214594;28;20099;-72
2023/03/16 01:08:03;;;;;;;6.82;4.35;;;;;;;6.46;90.12;101623.03;5214368;28;20444;-71
2023/03/16 01:10:35;;;;;;;7.22;4.43;;;;;;;6.45;91.76;101623.94;5214154;28;20073;-71
2023/03/16 01:13:06;;;;;;;7.60;4.55;;;;;;;6.41;91.54;101615.47;5215805;28;20017;-72
2023/03/16 01:15:38;;;;;;;5.03;4.30;;;;;;;6.45;91.80;101610.94;5216273;28;20022;-71
2023/03/16 01:18:09;;;;;;;7.70;4.60;;;;;;;6.42;92.13;101611.94;5215069;28;20033;-72
2023/03/16 01:20:47;;;;;;;7.38;4.45;;;;;;;6.45;92.07;101605.72;5215387;28;20459;-71
2023/03/16 01:23:20;;;;;;;7.03;5.10;;;;;;;6.36;91.67;101583.63;5215510;28;20034;-71
2023/03/16 01:25:53;;;;;;;8.80;4.88;;;;;;;6.51;91.75;101593.19;5213458;28;20448;-71
2023/03/16 01:28:27;;;;;;;6.55;4.78;;;;;;;6.50;91.99;101590.69;5215880;28;20040;-71
2023/03/16 01:31:02;;;;;;;5.70;4.65;;;;;;;6.49;93.06;101582.03;5215453;28;20033;-71
2023/03/16 01:33:34;;;;;;;8.15;4.50;;;;;;;6.51;92.75;101587.97;5214039;28;20026;-71
2023/03/16 01:36:13;;;;;;;6.00;4.50;;;;;;;6.50;93.14;101585.47;5215610;28;20091;-71
2023/03/16 01:38:44;;;;;;;6.15;4.38;;;;;;;6.48;92.14;101577.78;5215122;28;20026;-71
2023/03/16 01:41:16;;;;;;;8.05;4.20;;;;;;;6.50;91.87;101575.06;5214839;28;20034;-72
2023/03/16 01:43:47;;;;;;;6.07;4.30;;;;;;;6.50;92.37;101577.66;5214878;28;20028;-71
2023/03/16 01:46:23;;;;;;;6.85;4.53;;;;;;;6.54;91.97;101574.81;5215124;28;20037;-72
2023/03/16 01:49:08;;;;;;;6.88;4.68;;;;;;;6.67;91.19;101574.97;5212669;28;20087;-72
2023/03/16 01:51:51;;;;;;;7.07;4.45;;;;;;;6.71;91.36;101579.06;5214304;28;20037;-71
2023/03/16 01:54:27;;;;;;;5.88;4.65;;;;;;;6.65;91.45;101562.97;5214865;28;20026;-71
2023/03/16 01:57:03;;;;;;;6.28;4.40;;;;;;;6.55;89.65;101578.25;5214587;28;20057;-71
2023/03/16 01:59:40;;;;;;;6.30;4.28;;;;;;;6.61;91.75;101564.06;5212689;28;20076;-71
2023/03/16 02:02:13;;;;;;;6.07;4.18;;;;;;;6.58;91.52;101568.50;5213986;28;20483;-71
2023/03/16 02:05:03;;;;;;;6.97;4.43;;;;;;;6.77;91.00;101562.25;5213978;28;20040;-72
2023/03/16 02:07:41;;;;;;;6.03;4.70;;;;;;;6.61;90.83;101554.47;5214330;28;20033;-71
2023/03/16 02:10:17;;;;;;;6.65;4.28;;;;;;;6.71;90.05;101562.63;5213455;28;20330;-71
2023/03/16 02:12:49;;;;;;;6.47;4.70;;;;;;;6.64;90.17;101556.09;5213769;28;20391;-72
2023/03/16 02:15:20;;;;;;;5.17;3.90;;;;;;;6.68;92.23;101557.59;5214456;28;20032;-72
2023/03/16 02:17:52;;;;;;;6.63;4.25;;;;;;;6.73;92.81;101552.94;5213853;28;20034;-71
2023/03/16 02:21:00;;;;;;;6.18;4.00;;;;;;;6.89;95.29;101551.13;5212733;28;20030;-72
2023/03/16 02:23:33;;;;;;;5.07;4.00;;;;;;;6.67;93.98;101548.94;5213822;28;20121;-71
2023/03/16 02:26:13;;;;;;;6.53;4.68;;;;;;;6.68;96.33;101549.78;5213133;28;20025;-71
2023/03/16 02:29:13;;;;;;;6.15;4.50;;;;;;;6.85;96.92;101544.41;5212112;28;20022;-72
2023/03/16 02:31:45;;;;;;;5.10;3.72;;;;;;;6.57;97.12;101543.41;5212570;28;20483;-71
2023/03/16 02:34:18;;;;;;;8.02;4.47;;;;;;;6.58;98.16;101537.25;5213628;28;20076;-71
2023/03/16 02:36:51;;;;;;;5.72;4.13;;;;;;;6.58;100.00;101542.47;5214197;28;20073;-71
2023/03/16 02:39:22;;;;;;;7.82;4.35;;;;;;;6.61;100.00;101540.63;5213661;28;20029;-72
2023/03/16 02:41:54;;;;;;;6.70;4.13;;;;;;;6.61;100.00;101543.22;5212136;28;20025;-71
2023/03/16 02:44:32;;;;;;;5.22;3.85;;;;;;;6.65;100.00;101542.97;5213731;28;20058;-71
2023/03/16 02:47:14;;;;;;;5.25;4.45;;;;;;;6.71;100.00;101537.41;5213431;28;20022;-71
2023/03/16 02:49:45;;;;;;;6.40;4.18;;;;;;;6.57;100.00;101532.97;5213421;28;20052;-72
2023/03/16 02:52:16;;;;;;;4.68;3.92;;;;;;;6.57;100.00;101530.38;5213383;28;20352;-71
2023/03/16 02:54:48;;;;;;;6.43;3.90;;;;;;;6.62;100.00;101526.69;5213617;28;20026;-71
2023/03/16 02:57:19;;;;;;;6.70;4.25;;;;;;;6.55;100.00;101521.84;5213222;28;20032;-71
2023/03/16 02:59:51;;;;;;;5.18;3.90;;;;;;;6.54;100.00;101521.91;5212348;28;20029;-71
2023/03/16 03:02:22;;;;;;;7.07;4.35;;;;;;;6.57;100.00;101516.53;5213777;28;20030;-71
2023/03/16 03:04:54;;;;;;;5.90;4.70;;;;;;;6.62;100.00;101516.25;5213303;28;20042;-71
2023/03/16 03:07:30;;;;;;;6.72;3.88;;;;;;;6.61;100.00;101525.84;5213279;28;20458;-72
2023/03/16 03:10:04;;;;;;;5.82;4.25;;;;;;;6.54;100.00;101522.75;5213958;28;20028;-71
2023/03/16 03:12:36;;;;;;;6.00;4.10;;;;;;;6.58;100.00;101518.19;5217843;28;20113;-71
2023/03/16 03:15:07;;;;;;;7.78;4.45;;;;;;;6.68;100.00;101521.97;5216523;28;20116;-71
2023/03/16 03:17:39;;;;;;;8.30;4.53;;;;;;;6.66;100.00;101518.59;5216589;28;20498;-71
2023/03/16 03:20:18;;;;;;;7.43;4.10;;;;;;;6.61;100.00;101517.19;5217600;28;20026;-71
2023/03/16 03:22:53;;;;;;;6.82;4.55;;;;;;;6.64;100.00;101517.84;5216930;28;20184;-73
2023/03/16 03:25:24;;;;;;;7.30;4.25;;;;;;;6.57;100.00;101512.16;5217557;28;20125;-71
2023/03/16 03:27:56;;;;;;;6.32;4.18;;;;;;;6.50;100.00;101504.78;5217014;28;20509;-71
2023/03/16 03:30:27;;;;;;;11.27;4.45;;;;;;;6.48;100.00;101502.28;5216980;28;20026;-71
2023/03/16 03:33:00;;;;;;;8.40;4.75;;;;;;;6.52;100.00;101516.81;5217562;28;20025;-72
2023/03/16 03:35:31;;;;;;;7.13;4.07;;;;;;;6.56;100.00;101512.25;5216392;28;20038;-71
2023/03/16 03:38:02;;;;;;;6.57;4.60;;;;;;;6.58;100.00;101510.38;5217248;28;20029;-71
2023/03/16 03:40:34;;;;;;;6.20;4.00;;;;;;;6.58;98.99;101497.38;5217158;28;20051;-71
2023/03/16 03:43:05;;;;;;;8.23;4.55;;;;;;;6.62;98.28;101506.69;5215803;28;20049;-71
2023/03/16 03:45:36;;;;;;;8.07;4.43;;;;;;;6.61;99.25;101496.38;5217133;28;20149;-72
2023/03/16 03:48:08;;;;;;;5.50;3.63;;;;;;;6.59;98.12;101499.03;5218143;28;20557;-72
2023/03/16 03:50:39;;;;;;;6.80;4.45;;;;;;;6.62;97.32;101506.69;5216196;28;20053;-71
2023/03/16 03:53:11;;;;;;;7.03;4.20;;;;;;;6.67;98.71;101509.88;5216999;28;20312;-72
2023/03/16 03:55:42;;;;;;;6.38;3.85;;;;;;;6.57;98.42;101504.34;5216751;28;20032;-72
2023/03/16 03:58:14;;;;;;;6.15;3.88;;;;;;;6.56;100.00;101502.69;5216055;28;20040;-72
2023/03/16 04:00:45;;;;;;;6.88;4.40;;;;;;;6.47;100.00;101484.13;5217035;28;20115;-72
2023/03/16 04:03:16;;;;;;;7.05;3.90;;;;;;;6.51;100.00;101489.06;5215840;28;20026;-72
2023/03/16 04:05:48;;;;;;;8.50;4.22;;;;;;;6.56;99.86;101489.66;5216467;28;20116;-72
2023/03/16 04:08:19;;;;;;;6.35;3.72;;;;;;;6.59;99.76;101483.41;5216035;28;20041;-72
2023/03/16 04:10:50;;;;;;;6.22;3.80;;;;;;;6.48;99.58;101472.81;5216464;28;20049;-72
2023/03/16 04:13:22;;;;;;;7.30;4.00;;;;;;;6.51;100.00;101478.66;5217253;28;20029;-70
2023/03/16 04:15:57;;;;;;;3.95;3.33;;;;;;;6.61;100.00;101478.97;5217045;28;20025;-72
2023/03/16 04:18:29;;;;;;;6.30;3.88;;;;;;;6.51;98.92;101486.47;5214751;28;20619;-71
2023/03/16 04:21:00;;;;;;;5.57;3.60;;;;;;;6.46;100.00;101480.69;5216250;28;20079;-72
2023/03/16 04:23:32;;;;;;;5.93;3.28;;;;;;;6.50;99.83;101476.16;5214791;28;20045;-72
2023/03/16 04:26:04;;;;;;;6.65;4.00;;;;;;;6.51;100.00;101470.84;5214160;28;20443;-72
2023/03/16 04:28:35;;;;;;;6.43;3.38;;;;;;;6.49;100.00;101477.91;5214326;28;20065;-71
2023/03/16 04:31:09;;;;;;;5.45;3.28;;;;;;;6.61;100.00;101480.75;5213883;28;20033;-72
2023/03/16 04:33:41;;;;;;;4.93;3.35;;;;;;;6.60;99.30;101469.50;5214040;28;20030;-71
2023/03/16 04:36:12;;;;;;;7.38;3.78;;;;;;;6.54;99.58;101478.47;5214634;28;20343;-72
2023/03/16 04:38:44;;;;;;;5.18;3.70;;;;;;;6.56;99.79;101478.41;5214739;28;20455;-71
2023/03/16 04:41:15;;;;;;;4.93;3.38;;;;;;;6.56;98.45;101478.41;5212340;28;20038;-72
2023/03/16 04:43:46;;;;;;;6.05;3.80;;;;;;;6.62;98.96;101474.59;5214425;28;20117;-72
2023/03/16 04:46:17;;;;;;;6.75;3.50;;;;;;;6.60;99.03;101464.28;5215471;28;20038;-72
2023/03/16 04:48:49;;;;;;;5.43;3.35;;;;;;;6.64;98.82;101463.19;5213905;28;20022;-73
2023/03/16 04:51:20;;;;;;;5.82;3.42;;;;;;;6.64;99.60;101467.56;5215583;28;20041;-72
2023/03/16 04:53:52;;;;;;;4.88;2.95;;;;;;;6.66;100.00;101463.09;5213897;28;20026;-71
2023/03/16 04:56:23;;;;;;;6.03;3.47;;;;;;;6.75;98.78;101473.81;5215227;28;20030;-71
2023/03/16 04:58:55;;;;;;;4.68;2.88;;;;;;;6.67;100.00;101462.19;5214450;28;20065;-72
2023/03/16 05:01:27;;;;;;;4.50;2.92;;;;;;;6.67;100.00;101459.56;5214935;28;20026;-72
2023/03/16 05:03:58;;;;;;;5.85;3.15;;;;;;;6.67;100.00;101452.59;5214067;28;20391;-71
2023/03/16 05:06:30;;;;;;;7.97;3.40;;;;;;;6.68;100.00;101459.47;5214190;28;20032;-72
2023/03/16 05:09:03;;;;;;;5.40;3.38;;;;;;;6.62;100.00;101457.22;5214191;28;20040;-72
2023/03/16 05:11:35;;;;;;;5.35;3.15;;;;;;;6.63;100.00;101447.63;5214392;28;20451;-72
2023/03/16 05:14:06;;;;;;;4.63;2.72;;;;;;;6.69;100.00;101449.88;5214710;28;20034;-72
2023/03/16 05:16:38;;;;;;;4.53;2.75;;;;;;;6.72;100.00;101454.91;5214171;28;20033;-73
2023/03/16 05:19:09;;;;;;;5.78;3.53;;;;;;;6.68;100.00;101445.63;5213454;28;20046;-72
2023/03/16 05:21:40;;;;;;;6.07;2.95;;;;;;;6.65;100.00;101444.03;5213408;28;20025;-72
2023/03/16 05:24:11;;;;;;;5.93;3.03;;;;;;;6.74;100.00;101447.84;5214414;28;20025;-71
2023/03/16 05:26:43;;;;;;;6.13;2.85;;;;;;;6.66;100.00;101439.66;5212865;28;20028;-71
2023/03/16 05:29:14;;;;;;;8.38;3.20;;;;;;;6.66;100.00;101437.03;5213384;28;20044;-71
2023/03/16 05:31:46;;;;;;;6.13;2.88;;;;;;;6.65;100.00;101437.97;5214307;28;20033;-71
2023/03/16 05:34:17;;;;;;;5.32;2.90;;;;;;;6.67;100.00;101441.34;5212916;28;20025;-72
2023/03/16 05:36:49;;;;;;;7.32;3.10;;;;;;;6.66;100.00;101434.44;5212367;28;20045;-72
2023/03/16 05:39:21;;;;;;;5.25;2.92;;;;;;;6.70;100.00;101430.72;5213749;28;20026;-72
2023/03/16 05:41:53;;;;;;;5.40;2.95;;;;;;;6.70;100.00;101426.34;5212975;28;20128;-71
2023/03/16 05:44:25;;;;;;;3.85;2.78;;;;;;;6.70;100.00;101420.31;5214086;28;20087;-72
2023/03/16 05:46:56;;;;;;;5.50;3.00;;;;;;;6.74;100.00;101422.66;5214068;28;20038;-72
2023/03/16 05:49:27;;;;;;;7.45;2.90;;;;;;;6.73;100.00;101422.75;5213963;28;20042;-71
2023/03/16 05:51:59;;;;;;;6.45;3.25;;;;;;;6.74;100.00;101417.47;5212807;28;20109;-72
2023/03/16 05:54:30;;;;;;;6.03;2.90;;;;;;;6.73;100.00;101417.53;5214340;28;20051;-71
2023/03/16 05:57:02;;;;;;;5.35;3.20;;;;;;;6.84;100.00;101412.53;5213710;28;20024;-71
2023/03/16 05:59:33;;;;;;;6.50;3.03;;;;;;;6.85;100.00;101413.34;5212844;28;20092;-72
2023/03/16 06:02:04;;;;;;;5.95;3.13;;;;;;;6.85;100.00;101418.56;5212133;28;20065;-71
2023/03/16 06:04:36;;;;;;;5.80;2.47;;;;;;;6.89;100.00;101415.69;5212392;28;20510;-72
2023/03/16 06:07:07;;;;;;;4.43;2.80;;;;;;;6.90;100.00;101414.78;5212490;28;20391;-70
2023/03/16 06:09:38;;;;;;;8.18;3.40;;;;;;;6.89;100.00;101420.06;5211976;28;20468;-72
2023/03/16 06:12:10;;;;;;;5.25;2.95;;;;;;;6.90;100.00;101421.75;5212956;28;20088;-72
2023/03/16 06:14:41;;;;;;;5.25;2.83;;;;;;;6.94;100.00;101420.63;5212309;28;20100;-71
2023/03/16 06:17:12;;;;;;;5.75;3.22;;;;;;;7.01;98.03;101416.72;5213225;28;20109;-72
2023/03/16 06:19:43;;;;;;;7.30;3.58;;;;;;;6.96;98.58;101416.97;5212041;28;20269;-72
2023/03/16 06:22:15;;;;;;;6.22;3.03;;;;;;;6.94;99.25;101421.47;5213106;28;20491;-71
2023/03/16 06:24:46;;;;;;;4.88;3.20;;;;;;;6.89;100.00;101425.25;5211525;28;20379;-71
2023/03/16 06:27:19;;;;;;;6.90;3.10;;;;;;;6.97;100.00;101423.88;5213144;28;20133;-72
2023/03/16 06:29:50;;;;;;;6.28;3.40;;;;;;;7.02;98.49;101423.59;5211558;28;20125;-71
2023/03/16 06:32:21;;;;;;;5.47;2.65;;;;;;;7.00;99.53;101417.63;5212053;28;20136;-71
2023/03/16 06:34:53;;;;;;;6.25;2.92;;;;;;;7.03;100.00;101418.28;5211641;28;20053;-70
2023/03/16 06:37:24;;;;;;;4.80;2.72;;;;;;;7.02;100.00;101414.03;5212732;28;20028;-72
2023/03/16 06:39:55;;;;;;;7.22;3.22;;;;;;;7.01;100.00;101401.09;5211661;28;20045;-70
2023/03/16 06:42:27;;;;;;;6.97;3.20;;;;;;;7.03;100.00;101399.22;5211249;28;20563;-71
2023/03/16 06:44:58;;;;;;;3.75;2.58;;;;;;;6.99;100.00;101390.75;5213543;28;20038;-71
2023/03/16 06:47:30;;;;;;;4.68;2.90;;;;;;;7.01;100.00;101393.28;5214380;28;20026;-71
2023/03/16 06:50:03;;;;;;;7.40;3.10;;;;;;;7.10;100.00;101399.69;5213507;28;20085;-71
2023/03/16 06:52:34;;;;;;;6.05;3.05;;;;;;;7.10;100.00;101413.56;5216185;28;20030;-71
2023/03/16 06:55:06;;;;;;;5.70;2.90;;;;;;;7.14;100.00;101411.59;5214037;28;20056;-70
2023/03/16 06:57:38;;;;;;;5.75;3.25;;;;;;;7.17;100.00;101412.25;5217059;28;20110;-71
2023/03/16 07:00:12;;;;;;;4.97;3.17;;;;;;;7.28;100.00;101401.16;5216719;28;20034;-71
2023/03/16 07:02:44;;;;;;;4.95;3.13;;;;;;;7.26;100.00;101396.03;5216242;28;20403;-72
2023/03/16 07:05:15;;;;;;;6.20;2.72;;;;;;;7.27;97.12;101404.69;5218034;28;20026;-72
2023/03/16 07:07:47;;;;;;;5.32;2.72;;;;;;;7.25;96.85;101399.56;5215818;28;20034;-71
2023/03/16 07:10:18;;;;;;;4.18;2.30;;;;;;;7.30;97.88;101400.13;5214970;28;20030;-71
2023/03/16 07:12:50;;;;;;;4.88;2.65;;;;;;;7.35;97.31;101393.78;5214969;28;20487;-72
2023/03/16 07:15:24;;;;;;;3.75;2.97;;;;;;;7.32;99.04;101390.44;5215307;28;20034;-70
2023/03/16 07:17:55;;;;;;;5.50;3.35;;;;;;;7.35;96.46;101388.56;5210523;28;20029;-71
2023/03/16 07:20:28;;;;;;;6.22;3.25;;;;;;;7.40;96.07;101384.75;5213271;28;20428;-70
2023/03/16 07:23:00;;;;;;;;;;;;;;;7.99;93.19;101380.09;5216306;28;20025;-72
2023/03/16 07:25:31;;;;;;;4.80;2.83;;;;;;;7.54;95.87;101376.91;5215920;28;19924;-72
2023/03/16 07:28:03;;;;;;;5.22;2.90;;;;;;;7.55;93.06;101378.56;5214631;28;20030;-72
2023/03/16 07:30:34;;;;;;;5.03;2.85;;;;;;;7.56;93.23;101375.03;5214712;28;20041;-72
2023/03/16 07:33:05;;;;;;;6.88;2.78;;;;;;;7.61;93.49;101376.50;5214913;28;20502;-71
2023/03/16 07:35:37;;;;;;;6.75;2.90;;;;;;;7.62;92.52;101378.19;5215359;28;20037;-72
2023/03/16 07:38:10;;;;;;;4.72;2.83;;;;;;;7.67;92.86;101376.94;5215218;28;20022;-70
2023/03/16 07:40:42;;;;;;;5.40;2.83;;;;;;;7.70;92.13;101388.97;5215523;28;20033;-72
2023/03/16 07:43:13;;;;;;;4.78;2.67;;;;;;;7.72;91.18;101382.69;5216122;28;20029;-72
2023/03/16 07:45:51;;;;;;;5.70;2.88;;;;;;;7.88;90.14;101376.50;5216178;28;20483;-72
2023/03/16 07:48:22;;;;;;;4.75;2.40;;;;;;;7.75;91.86;101381.66;5215487;28;20030;-72
2023/03/16 07:50:53;;;;;;;5.45;2.38;;;;;;;7.81;89.21;101386.50;5213020;28;20046;-72
2023/03/16 07:53:25;;;;;;;5.03;2.75;;;;;;;7.77;90.42;101380.66;5214664;28;20057;-72
2023/03/16 07:55:56;;;;;;;5.22;2.47;;;;;;;7.79;88.53;101378.75;5213179;28;20042;-72
2023/03/16 07:58:28;;;;;;;7.15;2.53;;;;;;;7.89;85.52;101379.00;5215272;28;20033;-71
2023/03/16 08:01:00;;;;;;;8.73;3.05;;;;;;;7.88;84.13;101379.09;5214026;28;20938;-71
2023/03/16 08:03:31;;;;;;;5.87;2.77;;;;;;;7.99;85.15;101395.75;5215010;28;20021;-71
2023/03/16 08:06:04;;;;;;;4.88;2.50;;;;;;;8.03;85.51;101394.63;5215593;28;20688;-71
2023/03/16 08:08:35;;;;;;;7.88;3.08;;;;;;;8.08;83.63;101390.88;5214315;28;20080;-72
2023/03/16 08:11:06;;;;;;;5.55;2.25;;;;;;;8.16;82.13;101381.59;5214942;28;20026;-72
2023/03/16 08:13:38;;;;;;;4.65;2.38;;;;;;;8.23;81.52;101376.81;5214161;28;20108;-71
2023/03/16 08:16:09;;;;;;;3.97;2.72;;;;;;;8.19;81.60;101378.78;5214545;28;20030;-72
2023/03/16 08:18:41;;;;;;;4.72;2.67;;;;;;;8.23;81.28;101385.47;5214476;28;20033;-72
2023/03/16 08:21:13;;;;;;;7.60;2.40;;;;;;;8.29;83.97;101384.22;5214558;28;20065;-72
2023/03/16 08:23:48;;;;;;;6.78;2.60;;;;;;;8.30;79.76;101367.63;5214497;28;20056;-72
2023/03/16 08:26:20;;;;;;;5.85;2.58;;;;;;;8.49;79.99;101386.38;5213226;28;20422;-72
2023/03/16 08:28:51;;;;;;;6.30;2.42;;;;;;;8.54;77.28;101393.88;5213132;28;20038;-72
2023/03/16 08:31:24;;;;;;;4.72;2.67;;;;;;;8.65;78.66;101398.41;5214309;28;20033;-72
2023/03/16 08:33:56;;;;;;;6.93;3.00;;;;;;;8.67;79.52;101388.66;5214505;28;20534;-71
2023/03/16 08:36:27;;;;;;;3.78;2.50;;;;;;;8.79;80.22;101387.84;5213453;28;20151;-71
2023/03/16 08:38:59;;;;;;;5.35;2.72;;;;;;;8.75;78.24;101386.34;5214850;28;20048;-72
2023/03/16 08:41:31;;;;;;;7.22;2.88;;;;;;;8.67;78.65;101381.66;5212962;28;20048;-73
2023/03/16 08:44:03;;;;;;;6.03;2.83;;;;;;;8.69;76.72;101382.41;5212527;28;20404;-72
2023/03/16 08:46:34;;;;;;;5.75;2.88;;;;;;;8.76;75.24;101388.06;5214316;28;20479;-72
2023/03/16 08:49:05;;;;;;;5.15;2.70;;;;;;;8.71;75.71;101380.53;5213184;28;20664;-71
2023/03/16 08:51:37;;;;;;;5.47;2.38;;;;;;;8.78;75.63;101379.16;5213330;28;20427;-71
2023/03/16 08:54:08;;;;;;;4.60;2.63;;;;;;;8.81;74.21;101380.72;5214084;28;20022;-73
2023/03/16 08:56:39;;;;;;;6.05;2.38;;;;;;;8.88;74.29;101376.75;5214019;28;20061;-72
2023/03/16 08:59:10;;;;;;;4.97;2.53;;;;;;;8.89;75.65;101373.19;5212648;28;20041;-72
2023/03/16 09:01:42;;;;;;;5.63;2.75;;;;;;;8.90;73.80;101371.41;5214574;28;20053;-72
2023/03/16 09:04:13;;;;;;;5.90;2.60;;;;;;;9.00;72.78;101370.66;5216786;28;20028;-72
2023/03/16 09:06:46;;;;;;;6.38;2.92;;;;;;;9.06;72.76;101358.97;5215091;28;20026;-72
2023/03/16 09:09:18;;;;;;;3.22;2.35;;;;;;;9.21;72.29;101359.66;5214413;28;20049;-72
2023/03/16 09:11:49;;;;;;;4.88;2.72;;;;;;;9.20;71.02;101363.19;5213310;28;20152;-72
2023/03/16 09:14:20;;;;;;;4.15;2.13;;;;;;;9.25;70.31;101354.09;5214483;28;20487;-72
2023/03/16 09:16:52;;;;;;;7.15;3.13;;;;;;;9.29;68.16;101365.19;5210953;28;20378;-72
2023/03/16 09:19:24;;;;;;;7.88;2.45;;;;;;;9.47;70.13;101353.41;5213503;28;20384;-73
2023/03/16 09:21:55;;;;;;;5.55;2.40;;;;;;;9.65;68.62;101351.22;5213042;28;20091;-72
2023/03/16 09:24:26;;;;;;;4.47;2.60;;;;;;;9.79;65.82;101363.31;5213683;28;20383;-72
2023/03/16 09:26:58;;;;;;;5.55;2.38;;;;;;;9.86;66.54;101361.09;5212973;28;20029;-72
2023/03/16 09:29:29;;;;;;;3.92;2.20;;;;;;;9.82;65.17;101347.38;5212299;28;20025;-72
2023/03/16 09:32:01;;;;;;;6.43;2.30;;;;;;;9.99;63.11;101354.81;5213381;28;20435;-72
2023/03/16 09:34:33;;;;;;;5.55;2.53;;;;;;;9.98;64.14;101355.75;5214077;28;20030;-72
2023/03/16 09:37:04;;;;;;;5.93;2.70;;;;;;;9.92;62.24;101350.97;5212991;28;20064;-72
2023/03/16 09:39:35;;;;;;;4.53;2.20;;;;;;;10.09;63.10;101356.75;5213584;28;20340;-73
2023/03/16 09:42:13;;;;;;;4.85;2.22;;;;;;;10.14;62.10;101352.00;5213636;28;20024;-72
2023/03/16 09:45:06;;;;;;;4.85;2.03;;;;;;;10.32;61.76;101353.28;5213327;28;20065;-72
2023/03/16 09:47:39;;;;;;;4.15;2.50;;;;;;;10.35;60.65;101339.13;5227027;23;20063;-78
2023/03/16 09:50:19;;;;;;;4.32;2.63;;;;;;;10.68;59.94;101339.16;5232385;28;20391;-78
2023/03/16 09:53:11;;;;;;;3.95;2.13;;;;;;;11.19;60.57;101345.69;5235117;28;20498;-78
2023/03/16 09:55:47;;;;;;;5.65;1.90;;;;;;;11.26;57.78;101341.63;5232557;28;20044;-78
2023/03/16 09:58:21;;;;;;;5.55;2.33;;;;;;;11.07;56.23;101341.41;5230236;28;20087;-78
2023/03/16 10:01:10;;;;;;;5.85;2.33;;;;;;;11.35;57.19;101327.75;5249210;28;20034;-78
2023/03/16 10:04:08;;;;;;;3.33;1.95;;;;;;;11.45;57.40;101326.06;5230771;28;20511;-79
2023/03/16 10:06:54;;;;;;;5.55;2.15;;;;;;;11.44;55.17;101319.16;5230670;28;20040;-78
2023/03/16 10:09:44;;;;;;;4.32;2.28;;;;;;;11.59;56.16;101326.72;5231612;28;20104;-79
2023/03/16 10:12:16;;;;;;;5.32;2.00;;;;;;;11.57;54.88;101318.97;5232903;28;20025;-78
2023/03/16 10:15:13;;;;;;;6.32;2.47;;;;;;;11.71;54.84;101312.63;5231221;28;20429;-78
2023/03/16 10:18:01;;;;;;;4.68;2.00;;;;;;;11.85;53.53;101304.44;5233277;28;20053;-78
2023/03/16 10:20:33;;;;;;;5.45;2.20;;;;;;;11.87;53.13;101310.41;5235287;28;20044;-78
2023/03/16 10:23:16;;;;;;;3.88;2.08;;;;;;;12.01;53.99;101304.03;5236039;28;20487;-78
2023/03/16 10:25:50;;;;;;;6.35;2.25;;;;;;;12.13;52.86;101317.91;5235842;28;20021;-78
2023/03/16 10:28:26;;;;;;;7.03;2.35;;;;;;;12.33;53.24;101316.22;5236626;28;20505;-78
2023/03/16 10:30:59;;;;;;;4.57;1.90;;;;;;;12.24;50.73;101294.22;5236022;28;20028;-78
2023/03/16 10:33:35;;;;;;;4.88;1.65;;;;;;;12.38;50.27;101314.88;5235294;28;20019;-78
2023/03/16 10:36:30;;;;;;;6.72;1.88;;;;;;;12.46;50.72;101300.25;5235450;28;20029;-78
2023/03/16 10:39:13;;;;;;;3.42;1.50;;;;;;;12.48;51.57;101303.59;5235829;28;20017;-78
2023/03/16 10:41:54;;;;;;;3.75;2.13;;;;;;;12.33;50.92;101310.97;5236282;28;20349;-79
2023/03/16 10:44:28;;;;;;;5.53;1.90;;;;;;;12.41;50.25;101293.59;5234113;28;20069;-78
2023/03/16 10:47:04;;;;;;;4.75;1.80;;;;;;;12.57;49.85;101292.28;5236152;28;20088;-79
2023/03/16 10:49:43;;;;;;;4.05;1.60;;;;;;;12.66;49.35;101294.13;5236048;28;20585;-79
2023/03/16 10:52:38;;;;;;;4.93;1.70;;;;;;;12.98;50.07;101285.22;5233331;28;20037;-78
2023/03/16 10:55:22;;;;;;;4.07;1.50;;;;;;;12.99;48.51;101282.44;5236268;28;20092;-79
2023/03/16 10:57:57;;;;;;;3.60;1.70;;;;;;;13.02;47.68;101287.44;5234692;28;20041;-79
2023/03/16 11:00:34;;;;;;;5.00;1.73;;;;;;;13.17;48.82;101279.16;5236277;28;20825;-78
2023/03/16 11:03:40;;;;;;;2.90;1.40;;;;;;;13.29;47.92;101271.03;5235126;28;20479;-78
2023/03/16 11:06:23;;;;;;;4.07;1.80;;;;;;;13.24;48.74;101267.16;5223127;28;20057;-78
2023/03/16 11:09:02;;;;;;;;;;;;;;;13.92;49.33;101272.41;5235050;28;20483;-78
2023/03/16 11:11:35;;;;;;;3.47;1.40;;;;;;;13.51;49.63;101267.31;5235573;28;19925;-78
2023/03/16 11:14:14;;;;;;;3.58;1.13;;;;;;;13.67;45.02;101261.47;5235548;28;20045;-78
2023/03/16 11:16:52;;;;;;;3.95;1.48;;;;;;;13.77;44.81;101249.13;5237083;28;20116;-78
2023/03/16 11:19:28;;;;;;;3.83;1.30;;;;;;;13.82;45.26;101241.63;5235636;28;20029;-81
2023/03/16 11:22:05;;;;;;;5.70;1.70;;;;;;;13.98;45.57;101241.06;5234871;28;20505;-79
2023/03/16 11:25:11;;;;;;;5.47;1.70;;;;;;;14.09;45.47;101250.59;5236383;28;20034;-79
2023/03/16 11:28:10;;;;;;;5.05;1.40;;;;;;;14.09;44.53;101245.31;5234758;28;20053;-79
2023/03/16 11:31:10;;;;;;;4.07;1.38;;;;;;;14.08;44.26;101256.84;5234681;28;20083;-79
2023/03/16 11:33:41;;;;;;;3.38;1.45;;;;;;;13.72;44.06;101251.38;5233933;28;20115;-79
2023/03/16 11:36:34;;;;;;;2.38;1.23;;;;;;;13.97;45.24;101235.94;5234807;28;20597;-79
2023/03/16 11:39:46;;;;;;;5.25;1.35;;;;;;;14.12;45.48;101221.31;5251468;28;20116;-79
2023/03/16 11:42:28;;;;;;;5.18;1.63;;;;;;;14.02;45.23;101233.72;5228298;28;20490;-78
2023/03/16 11:45:18;;;;;;;3.43;1.30;;;;;;;14.01;44.16;101232.84;5234646;28;20032;-78
2023/03/16 11:48:20;;;;;;;7.35;1.80;;;;;;;14.10;45.56;101218.00;5233640;28;20048;-78
2023/03/16 11:51:02;;;;;;;2.83;1.17;;;;;;;13.89;45.50;101207.66;5232985;28;20376;-78
2023/03/16 11:54:02;;;;;;;5.60;1.50;;;;;;;14.04;45.24;101202.78;5233803;28;20021;-78
2023/03/16 11:56:38;;;;;;;4.30;1.40;;;;;;;14.00;44.59;101210.13;5234627;28;20030;-78
2023/03/16 11:59:28;;;;;;;4.47;1.50;;;;;;;14.29;44.65;101204.75;5234787;28;20506;-78
2023/03/16 12:02:20;;;;;;;3.92;1.60;;;;;;;14.16;44.00;101203.41;5232903;28;20033;-78
2023/03/16 12:05:15;;;;;;;3.38;1.33;;;;;;;14.31;44.05;101192.25;5235526;28;20510;-78